Time;durP1;ratioP1;P1;durP2;ratioP2;P2;SDS_P1;SDS_P2;PMS_P1;PMS_P2;Temp;Humidity;BMP_temperature;BMP_pressure;BME280_temperature;BME280_humidity;BME280_pressure;Samples;Min_cycle;Max_cycle;Signal;HPM_P1;HPM_P2
2024/02/29 00:00:54;;;;;;;15.20;7.90;;;;;;;-2.45;100.00;98830.94;6108696;19;20031;-71
2024/02/29 00:02:54;;;;;;;18.90;8.82;;;;;;;-2.50;100.00;98828.28;6111302;19;20030;-71
2024/02/29 00:04:54;;;;;;;16.10;7.82;;;;;;;-2.56;100.00;98827.53;6110883;19;20530;-71
2024/02/29 00:06:55;;;;;;;16.45;8.88;;;;;;;-2.60;100.00;98821.03;6111171;19;20036;-71
2024/02/29 00:08:55;;;;;;;16.02;8.15;;;;;;;-2.69;100.00;98827.34;6111202;19;20018;-71
2024/02/29 00:10:56;;;;;;;15.05;8.00;;;;;;;-2.70;100.00;98823.84;6109542;19;20034;-71
2024/02/29 00:12:57;;;;;;;17.65;8.80;;;;;;;-2.75;100.00;98818.44;6111591;19;20045;-71
2024/02/29 00:14:57;;;;;;;15.82;9.05;;;;;;;-2.76;100.00;98818.75;6112649;19;20333;-71
2024/02/29 00:17:00;;;;;;;17.33;7.85;;;;;;;-2.72;100.00;98828.75;6111071;19;20010;-71
2024/02/29 00:19:00;;;;;;;18.00;9.20;;;;;;;-2.58;100.00;98818.84;6112486;19;20074;-71
2024/02/29 00:21:01;;;;;;;14.90;8.00;;;;;;;-2.47;100.00;98821.50;6110585;19;20346;-71
2024/02/29 00:23:01;;;;;;;17.85;9.18;;;;;;;-2.47;100.00;98819.59;6112247;19;20367;-71
2024/02/29 00:25:02;;;;;;;17.83;9.20;;;;;;;-2.47;100.00;98814.19;6112635;19;20015;-71
2024/02/29 00:27:03;;;;;;;17.10;8.57;;;;;;;-2.53;100.00;98811.78;6112270;19;20013;-71
2024/02/29 00:29:04;;;;;;;18.70;8.60;;;;;;;-2.51;100.00;98815.00;6112370;19;20419;-71
2024/02/29 00:31:04;;;;;;;15.23;8.27;;;;;;;-2.56;100.00;98818.59;6110936;19;20115;-71
2024/02/29 00:33:05;;;;;;;18.52;8.55;;;;;;;-2.55;100.00;98812.09;6111306;19;20020;-71
2024/02/29 00:35:05;;;;;;;16.00;8.88;;;;;;;-2.50;100.00;98820.16;6110935;19;20017;-71
2024/02/29 00:37:06;;;;;;;17.80;9.13;;;;;;;-2.46;100.00;98818.50;6111325;19;20082;-71
2024/02/29 00:39:07;;;;;;;15.13;7.95;;;;;;;-2.45;100.00;98817.41;6110780;19;20010;-71
2024/02/29 00:41:07;;;;;;;15.43;7.70;;;;;;;-2.35;100.00;98811.06;6109943;19;20482;-71
2024/02/29 00:43:08;;;;;;;18.13;8.40;;;;;;;-2.32;100.00;98814.03;6111700;19;20323;-71
2024/02/29 00:45:09;;;;;;;16.80;7.95;;;;;;;-2.32;100.00;98811.34;6110139;19;20518;-71
2024/02/29 00:47:11;;;;;;;14.43;7.82;;;;;;;-2.31;100.00;98810.25;6110504;19;20015;-71
2024/02/29 00:49:13;;;;;;;15.27;7.95;;;;;;;-2.32;100.00;98813.22;6109821;19;20010;-71
2024/02/29 00:51:13;;;;;;;;;;;;;;;-2.27;100.00;98805.03;6108680;19;20126;-71
2024/02/29 00:53:14;;;;;;;17.67;8.07;;;;;;;-2.29;100.00;98797.19;6108904;19;19956;-71
2024/02/29 00:55:14;;;;;;;12.18;7.40;;;;;;;-2.27;100.00;98808.56;6110647;19;20019;-71
2024/02/29 00:57:14;;;;;;;13.20;7.47;;;;;;;-2.36;100.00;98809.47;6110168;19;20002;-71
2024/02/29 00:59:15;;;;;;;15.85;6.82;;;;;;;-2.46;100.00;98796.81;6110960;19;19999;-71
2024/02/29 01:01:15;;;;;;;14.10;7.50;;;;;;;-2.43;100.00;98801.66;6109564;19;20009;-71
2024/02/29 01:03:15;;;;;;;12.45;6.53;;;;;;;-2.41;100.00;98804.88;6110511;19;19999;-71
2024/02/29 01:05:16;;;;;;;13.45;7.47;;;;;;;-2.42;100.00;98799.75;6110932;19;20005;-71
2024/02/29 01:07:16;;;;;;;14.25;7.10;;;;;;;-2.45;100.00;98794.91;6109172;19;20447;-71
2024/02/29 01:09:17;;;;;;;11.80;6.85;;;;;;;-2.49;100.00;98788.44;6110803;19;20006;-71
2024/02/29 01:11:18;;;;;;;13.30;6.28;;;;;;;-2.59;100.00;98792.06;6109612;19;20320;-71
2024/02/29 01:13:18;;;;;;;13.73;6.35;;;;;;;-2.66;100.00;98788.84;6109907;19;20006;-71
2024/02/29 01:15:19;;;;;;;11.02;6.50;;;;;;;-2.66;100.00;98783.44;6098872;19;20003;-71
2024/02/29 01:17:22;;;;;;;14.88;7.75;;;;;;;-2.66;100.00;98778.84;6109997;19;20018;-71
2024/02/29 01:19:23;;;;;;;12.30;6.97;;;;;;;-2.71;100.00;98789.72;6110366;19;20064;-71
2024/02/29 01:21:23;;;;;;;11.30;6.30;;;;;;;-2.72;100.00;98796.25;6107996;19;20010;-70
2024/02/29 01:23:23;;;;;;;14.57;7.72;;;;;;;-2.80;100.00;98782.50;6110051;19;20021;-70
2024/02/29 01:25:24;;;;;;;14.85;7.53;;;;;;;-2.86;100.00;98781.72;6109528;19;20023;-70
2024/02/29 01:27:24;;;;;;;14.52;6.70;;;;;;;-2.82;100.00;98777.34;6107268;19;20069;-70
2024/02/29 01:29:25;;;;;;;15.60;6.90;;;;;;;-2.83;100.00;98770.31;6109445;19;20036;-70
2024/02/29 01:31:25;;;;;;;16.92;6.60;;;;;;;-2.87;100.00;98769.28;6108004;19;20324;-70
2024/02/29 01:33:25;;;;;;;13.65;6.68;;;;;;;-2.92;100.00;98769.31;6110318;19;20554;-70
2024/02/29 01:35:26;;;;;;;12.65;6.75;;;;;;;-2.99;100.00;98757.97;6108992;19;20399;-70
2024/02/29 01:37:26;;;;;;;13.80;6.90;;;;;;;-3.02;100.00;98764.78;6108917;19;20011;-71
2024/02/29 01:39:26;;;;;;;18.13;7.05;;;;;;;-3.01;100.00;98757.47;6109628;19;20380;-71
2024/02/29 01:41:27;;;;;;;13.70;6.55;;;;;;;-3.05;100.00;98749.13;6107870;19;20002;-71
2024/02/29 01:43:29;;;;;;;14.43;7.50;;;;;;;-3.08;100.00;98746.16;6109236;19;20010;-71
2024/02/29 01:45:29;;;;;;;14.50;7.32;;;;;;;-3.04;100.00;98739.09;6109614;19;20379;-71
2024/02/29 01:47:30;;;;;;;14.43;7.13;;;;;;;-3.04;100.00;98744.50;6108156;19;20032;-71
2024/02/29 01:49:30;;;;;;;12.88;6.40;;;;;;;-3.11;100.00;98739.41;6108965;19;20647;-71
2024/02/29 01:51:32;;;;;;;16.95;7.25;;;;;;;-3.05;100.00;98741.00;6105554;19;20375;-70
2024/02/29 01:53:32;;;;;;;15.67;7.00;;;;;;;-3.00;100.00;98745.53;6109163;19;20306;-71
2024/02/29 01:55:32;;;;;;;13.10;6.57;;;;;;;-3.02;100.00;98729.59;6105699;19;20013;-71
2024/02/29 01:57:33;;;;;;;12.68;7.03;;;;;;;-2.94;100.00;98720.84;6107031;19;20002;-71
2024/02/29 01:59:36;;;;;;;12.50;6.88;;;;;;;-2.89;100.00;98726.25;6107733;19;20010;-71
2024/02/29 02:01:37;;;;;;;;;;;;;;;-2.98;100.00;98724.41;6107144;19;19998;-71
2024/02/29 02:03:38;;;;;;;10.50;5.93;;;;;;;-3.12;100.00;98716.13;6108008;19;20339;-71
2024/02/29 02:05:38;;;;;;;11.95;6.53;;;;;;;-3.12;100.00;98716.13;6107526;19;20010;-71
2024/02/29 02:07:43;;;;;;;12.02;6.97;;;;;;;-3.05;100.00;98713.13;6106923;19;20014;-71
2024/02/29 02:09:45;;;;;;;11.63;7.07;;;;;;;-3.01;100.00;98711.44;6106912;19;20010;-71
2024/02/29 02:11:45;;;;;;;12.53;7.00;;;;;;;-3.01;100.00;98706.03;6106701;19;20006;-71
2024/02/29 02:13:46;;;;;;;16.88;7.57;;;;;;;-3.10;100.00;98711.25;6106279;19;20492;-71
2024/02/29 02:15:46;;;;;;;15.75;7.13;;;;;;;-3.21;100.00;98707.81;6100629;19;20315;-71
2024/02/29 02:17:50;;;;;;;12.73;6.30;;;;;;;-3.25;100.00;98709.47;6101007;19;20002;-71
2024/02/29 02:19:52;;;;;;;14.15;6.90;;;;;;;-3.28;100.00;98704.63;6098365;19;20003;-71
2024/02/29 02:21:52;;;;;;;15.18;7.63;;;;;;;-3.32;100.00;98708.16;6099756;19;20074;-71
2024/02/29 02:23:53;;;;;;;13.60;6.90;;;;;;;-3.30;100.00;98704.09;6099264;19;20364;-71
2024/02/29 02:25:59;;;;;;;14.98;7.55;;;;;;;-3.25;100.00;98705.94;6099801;19;20030;-71
2024/02/29 02:28:00;;;;;;;14.57;6.72;;;;;;;-3.22;100.00;98703.50;6099523;19;20007;-71
2024/02/29 02:30:06;;;;;;;14.20;7.32;;;;;;;-3.20;100.00;98703.22;6099160;19;20541;-71
2024/02/29 02:32:07;;;;;;;12.98;6.78;;;;;;;-3.28;100.00;98695.69;6098810;19;20023;-71
2024/02/29 02:34:07;;;;;;;13.25;6.80;;;;;;;-3.39;100.00;98692.28;6099602;19;20363;-71
2024/02/29 02:36:07;;;;;;;13.80;6.25;;;;;;;-3.47;100.00;98690.16;6099917;19;20011;-71
2024/02/29 02:38:08;;;;;;;11.27;6.25;;;;;;;-3.53;100.00;98691.28;6098679;19;20011;-71
2024/02/29 02:40:10;;;;;;;17.90;7.05;;;;;;;-3.63;100.00;98667.81;6099699;19;20229;-71
2024/02/29 02:42:10;;;;;;;11.18;6.63;;;;;;;-3.61;100.00;98676.44;6100710;19;20007;-71
2024/02/29 02:44:12;;;;;;;14.77;7.18;;;;;;;-3.63;100.00;98680.53;6099907;19;20010;-71
2024/02/29 02:46:12;;;;;;;15.98;7.88;;;;;;;-3.69;100.00;98683.25;6099214;19;20034;-71
2024/02/29 02:48:12;;;;;;;11.77;6.85;;;;;;;-3.68;100.00;98670.53;6099590;19;20010;-71
2024/02/29 02:50:13;;;;;;;12.73;6.45;;;;;;;-3.66;100.00;98662.94;6097817;19;20415;-71
2024/02/29 02:52:14;;;;;;;15.20;6.65;;;;;;;-3.65;100.00;98661.84;6099125;19;20048;-71
2024/02/29 02:54:14;;;;;;;14.40;6.63;;;;;;;-3.68;100.00;98657.03;6099681;19;20019;-71
2024/02/29 02:56:14;;;;;;;16.10;7.22;;;;;;;-3.74;100.00;98664.34;6100159;19;20011;-71
2024/02/29 02:58:15;;;;;;;12.93;7.07;;;;;;;-3.69;100.00;98653.50;6099653;19;19999;-71
2024/02/29 03:00:15;;;;;;;15.80;6.70;;;;;;;-3.60;100.00;98661.84;6097832;19;20633;-71
2024/02/29 03:02:16;;;;;;;11.02;6.70;;;;;;;-3.50;100.00;98660.94;6100049;19;20487;-71
2024/02/29 03:04:16;;;;;;;11.30;6.32;;;;;;;-3.51;100.00;98660.13;6098827;19;20026;-71
2024/02/29 03:06:16;;;;;;;12.43;6.07;;;;;;;-3.52;100.00;98657.72;6100165;19;20026;-71
2024/02/29 03:08:17;;;;;;;12.55;6.70;;;;;;;-3.49;100.00;98667.97;6103834;19;20419;-71
2024/02/29 03:10:17;;;;;;;16.17;7.35;;;;;;;-3.48;100.00;98666.88;6104614;19;21025;-71
2024/02/29 03:12:17;;;;;;;13.32;6.35;;;;;;;-3.49;100.00;98662.56;6104085;19;20036;-71
2024/02/29 03:14:18;;;;;;;11.38;6.07;;;;;;;-3.49;100.00;98662.56;6104966;19;19998;-71
2024/02/29 03:16:22;;;;;;;11.43;6.70;;;;;;;-3.43;100.00;98662.25;6112157;19;20011;-71
2024/02/29 03:18:23;;;;;;;11.63;6.47;;;;;;;-3.47;100.00;98649.59;6112079;19;20553;-71
2024/02/29 03:20:23;;;;;;;18.05;6.47;;;;;;;-3.45;100.00;98645.50;6111031;19;20011;-71
2024/02/29 03:22:24;;;;;;;10.93;6.00;;;;;;;-3.47;100.00;98644.97;6111975;19;20020;-71
2024/02/29 03:24:24;;;;;;;12.98;6.38;;;;;;;-3.47;100.00;98642.28;6111827;19;20003;-71
2024/02/29 03:26:24;;;;;;;12.93;6.93;;;;;;;-3.49;100.00;98639.03;6111623;19;20346;-71
2024/02/29 03:28:25;;;;;;;13.20;6.88;;;;;;;-3.54;100.00;98635.56;6111024;19;20447;-71
2024/02/29 03:30:25;;;;;;;14.45;7.20;;;;;;;-3.60;100.00;98640.19;6110768;19;20447;-71
2024/02/29 03:32:26;;;;;;;13.82;6.57;;;;;;;-3.62;100.00;98644.28;6111473;19;20018;-71
2024/02/29 03:34:27;;;;;;;15.98;7.25;;;;;;;-3.69;100.00;98640.00;6112308;19;20021;-71
2024/02/29 03:36:27;;;;;;;15.77;7.28;;;;;;;-3.78;100.00;98635.47;6111962;19;20328;-71
2024/02/29 03:38:28;;;;;;;15.43;6.97;;;;;;;-3.83;100.00;98630.06;6111862;19;20014;-71
2024/02/29 03:40:28;;;;;;;14.27;6.25;;;;;;;-3.77;100.00;98642.47;6108942;19;20017;-71
2024/02/29 03:42:28;;;;;;;13.18;6.75;;;;;;;-3.83;100.00;98640.88;6111136;19;20167;-71
2024/02/29 03:44:29;;;;;;;15.70;6.95;;;;;;;-3.91;100.00;98636.06;6112500;19;20007;-71
2024/02/29 03:46:29;;;;;;;14.65;6.97;;;;;;;-3.88;100.00;98638.25;6111482;19;20006;-71
2024/02/29 03:48:29;;;;;;;16.27;6.72;;;;;;;-3.86;100.00;98644.97;6109100;19;20010;-71
2024/02/29 03:50:30;;;;;;;12.00;6.40;;;;;;;-3.79;100.00;98650.06;6110844;19;20018;-71
2024/02/29 03:52:30;;;;;;;12.55;6.50;;;;;;;-3.77;100.00;98645.19;6110555;19;20023;-71
2024/02/29 03:54:31;;;;;;;15.40;7.63;;;;;;;-3.82;100.00;98645.19;6111273;19;20405;-71
2024/02/29 03:56:31;;;;;;;12.10;6.93;;;;;;;-3.91;100.00;98642.28;6111076;19;20011;-71
2024/02/29 03:58:31;;;;;;;12.40;6.10;;;;;;;-3.99;100.00;98642.88;6111592;19;20026;-71
2024/02/29 04:00:32;;;;;;;13.82;7.22;;;;;;;-3.95;100.00;98643.94;6109845;19;20041;-71
2024/02/29 04:02:32;;;;;;;14.32;6.45;;;;;;;-3.95;100.00;98638.53;6110021;19;20007;-71
2024/02/29 04:04:32;;;;;;;12.80;6.57;;;;;;;-3.97;100.00;98638.81;6111889;19;20011;-71
2024/02/29 04:06:33;;;;;;;11.68;6.05;;;;;;;-3.92;100.00;98631.75;6111357;19;20010;-71
2024/02/29 04:08:35;;;;;;;9.18;5.18;;;;;;;-3.89;100.00;98626.59;6110857;19;20340;-71
2024/02/29 04:10:36;;;;;;;11.18;6.03;;;;;;;-3.93;100.00;98638.25;6109905;19;20030;-71
2024/02/29 04:12:36;;;;;;;11.35;6.30;;;;;;;-3.99;100.00;98635.56;6110396;19;20253;-71
2024/02/29 04:14:38;;;;;;;8.70;5.80;;;;;;;-4.03;100.00;98628.31;6111106;19;20007;-71
2024/02/29 04:16:38;;;;;;;10.60;5.10;;;;;;;-4.02;100.00;98629.94;6109352;19;20015;-71
2024/02/29 04:18:39;;;;;;;12.32;6.25;;;;;;;-3.96;100.00;98634.22;6109526;19;20003;-71
2024/02/29 04:20:40;;;;;;;10.50;5.95;;;;;;;-3.99;100.00;98632.88;6108633;19;20007;-71
2024/02/29 04:22:40;;;;;;;11.07;5.97;;;;;;;-4.06;100.00;98628.84;6110227;19;20323;-71
2024/02/29 04:24:41;;;;;;;16.83;6.72;;;;;;;-4.03;100.00;98625.63;6111031;19;20003;-71
2024/02/29 04:26:41;;;;;;;10.27;5.03;;;;;;;-4.07;100.00;98619.94;6110428;19;20049;-71
2024/02/29 04:28:41;;;;;;;8.32;4.63;;;;;;;-4.05;100.00;98619.69;6109826;19;19999;-71
2024/02/29 04:30:42;;;;;;;10.45;5.70;;;;;;;-4.09;100.00;98611.31;6108608;19;20395;-71
2024/02/29 04:32:43;;;;;;;10.57;5.38;;;;;;;-4.11;100.00;98616.19;6110401;19;19994;-71
2024/02/29 04:34:43;;;;;;;9.95;5.45;;;;;;;-4.09;100.00;98622.13;6110922;19;20257;-71
2024/02/29 04:36:44;;;;;;;9.18;5.07;;;;;;;-4.06;100.00;98626.16;6110284;19;20459;-71
2024/02/29 04:38:44;;;;;;;9.60;5.47;;;;;;;-4.01;100.00;98618.84;6110325;19;20447;-71
2024/02/29 04:40:44;;;;;;;13.82;5.88;;;;;;;-4.01;100.00;98621.53;6107522;19;20010;-71
2024/02/29 04:42:45;;;;;;;9.85;5.72;;;;;;;-3.96;100.00;98607.19;6109660;19;20002;-71
2024/02/29 04:44:45;;;;;;;10.65;5.75;;;;;;;-3.93;100.00;98622.84;6109910;19;20609;-71
2024/02/29 04:46:45;;;;;;;7.93;4.22;;;;;;;-3.88;100.00;98619.31;6109844;19;20007;-71
2024/02/29 04:48:46;;;;;;;9.23;5.05;;;;;;;-3.94;100.00;98618.53;6110049;19;20002;-71
2024/02/29 04:50:46;;;;;;;14.77;5.45;;;;;;;-4.02;100.00;98625.31;6108702;19;20009;-71
2024/02/29 04:52:46;;;;;;;8.88;4.68;;;;;;;-4.06;100.00;98621.56;6110232;19;20006;-71
2024/02/29 04:54:47;;;;;;;9.18;4.65;;;;;;;-4.12;100.00;98619.19;6109068;19;20317;-71
2024/02/29 04:56:47;;;;;;;10.70;4.93;;;;;;;-4.15;100.00;98612.41;6109549;19;20463;-71
2024/02/29 04:58:49;;;;;;;10.65;5.53;;;;;;;-4.13;100.00;98610.28;6108259;19;20006;-71
2024/02/29 05:00:49;;;;;;;9.30;5.35;;;;;;;-4.08;100.00;98614.81;6108489;19;20007;-71
2024/02/29 05:02:49;;;;;;;9.23;4.63;;;;;;;-4.12;100.00;98609.19;6108852;19;20328;-71
2024/02/29 05:04:50;;;;;;;8.98;5.18;;;;;;;-4.18;100.00;98607.59;6109547;19;20002;-71
2024/02/29 05:06:50;;;;;;;12.95;4.97;;;;;;;-4.21;100.00;98600.06;6109761;19;20006;-71
2024/02/29 05:08:50;;;;;;;7.50;4.60;;;;;;;-4.17;100.00;98603.00;6110005;19;20011;-71
2024/02/29 05:10:53;;;;;;;9.25;5.30;;;;;;;-4.20;100.00;98606.25;6108599;19;20074;-71
2024/02/29 05:12:54;;;;;;;10.40;5.20;;;;;;;-4.25;100.00;98594.38;6108396;19;20003;-71
2024/02/29 05:14:54;;;;;;;10.07;4.63;;;;;;;-4.31;100.00;98594.69;6108571;19;20007;-71
2024/02/29 05:16:55;;;;;;;9.93;4.97;;;;;;;-4.34;100.00;98593.34;6108881;19;20482;-71
2024/02/29 05:18:55;;;;;;;13.02;5.28;;;;;;;-4.28;100.00;98592.25;6109569;19;20452;-71
2024/02/29 05:20:55;;;;;;;8.43;4.82;;;;;;;-4.26;100.00;98595.47;6108303;19;20030;-71
2024/02/29 05:22:56;;;;;;;9.80;5.07;;;;;;;-4.26;100.00;98594.66;6109118;19;20006;-71
2024/02/29 05:24:58;;;;;;;9.93;5.35;;;;;;;-4.17;100.00;98589.47;6109397;19;20011;-71
2024/02/29 05:26:58;;;;;;;9.18;4.60;;;;;;;-4.14;100.00;98591.59;6109048;19;20074;-71
2024/02/29 05:28:58;;;;;;;12.13;5.18;;;;;;;-4.19;100.00;98581.66;6108724;19;20492;-71
2024/02/29 05:30:59;;;;;;;11.30;6.00;;;;;;;-4.15;100.00;98576.50;6107839;19;20002;-71
2024/02/29 05:32:59;;;;;;;16.08;6.68;;;;;;;-4.17;100.00;98582.19;6110105;19;20038;-71
2024/02/29 05:34:59;;;;;;;12.43;5.72;;;;;;;-4.15;100.00;98582.69;6108796;19;20335;-71
2024/02/29 05:37:00;;;;;;;14.80;6.60;;;;;;;-4.16;100.00;98581.09;6110045;19;20478;-71
2024/02/29 05:39:00;;;;;;;14.35;6.70;;;;;;;-4.13;100.00;98579.75;6110021;19;20011;-71
2024/02/29 05:41:02;;;;;;;13.85;5.75;;;;;;;-4.09;100.00;98578.09;6107890;19;20006;-71
2024/02/29 05:43:03;;;;;;;13.20;7.47;;;;;;;-4.07;100.00;98578.59;6109523;19;20095;-71
2024/02/29 05:45:06;;;;;;;13.52;7.15;;;;;;;-4.11;100.00;98578.38;6108395;19;20011;-71
2024/02/29 05:47:07;;;;;;;11.15;5.97;;;;;;;-4.15;100.00;98571.09;6109436;19;20006;-71
2024/02/29 05:49:08;;;;;;;16.03;6.63;;;;;;;-4.20;100.00;98571.94;6109438;19;20002;-71
2024/02/29 05:51:08;;;;;;;11.45;5.57;;;;;;;-4.16;100.00;98581.09;6106715;19;20090;-71
2024/02/29 05:53:10;;;;;;;13.65;6.57;;;;;;;-4.15;100.00;98571.88;6108383;19;20006;-71
2024/02/29 05:55:10;;;;;;;11.18;5.90;;;;;;;-4.15;100.00;98576.50;6108875;19;20009;-71
2024/02/29 05:57:11;;;;;;;11.50;5.93;;;;;;;-4.12;100.00;98576.75;6108047;19;20089;-71
2024/02/29 05:59:12;;;;;;;15.20;6.47;;;;;;;-4.20;100.00;98577.34;6106334;19;20488;-71
2024/02/29 06:01:13;;;;;;;13.95;6.05;;;;;;;-4.21;100.00;98570.34;6106621;19;20006;-71
2024/02/29 06:03:13;;;;;;;12.45;7.18;;;;;;;-4.26;100.00;98568.44;6107468;19;19995;-71
2024/02/29 06:05:14;;;;;;;13.52;6.70;;;;;;;-4.21;100.00;98580.34;6106292;19;20002;-71
2024/02/29 06:07:14;;;;;;;15.98;7.03;;;;;;;-4.28;100.00;98575.22;6106248;19;20007;-71
2024/02/29 06:09:14;;;;;;;14.23;5.78;;;;;;;-4.33;100.00;98576.06;6105192;19;20006;-71
2024/02/29 06:11:15;;;;;;;13.15;6.15;;;;;;;-4.40;100.00;98567.44;6105362;19;20463;-71
2024/02/29 06:13:15;;;;;;;11.38;6.57;;;;;;;-4.35;100.00;98575.53;6105550;19;20360;-71
2024/02/29 06:15:16;;;;;;;18.90;8.32;;;;;;;-4.38;100.00;98570.69;6096747;19;20003;-71
2024/02/29 06:17:17;;;;;;;15.27;7.10;;;;;;;-4.40;100.00;98561.22;6105904;19;20012;-71
2024/02/29 06:19:17;;;;;;;14.68;7.10;;;;;;;-4.39;100.00;98569.06;6106534;19;20006;-71
2024/02/29 06:21:18;;;;;;;10.82;6.03;;;;;;;-4.41;100.00;98565.84;6107323;19;20022;-71
2024/02/29 06:23:18;;;;;;;15.68;6.60;;;;;;;-4.39;100.00;98569.06;6108374;19;20026;-71
2024/02/29 06:25:20;;;;;;;15.68;7.22;;;;;;;-4.41;100.00;98554.22;6106283;19;20031;-71
2024/02/29 06:27:22;;;;;;;14.23;7.60;;;;;;;-4.35;100.00;98558.50;6107067;19;20011;-71
2024/02/29 06:29:23;;;;;;;14.05;6.10;;;;;;;-4.42;100.00;98549.91;6108550;19;20006;-71
2024/02/29 06:31:25;;;;;;;16.27;7.68;;;;;;;-4.46;100.00;98563.19;6107150;19;20470;-71
2024/02/29 06:33:25;;;;;;;;;;;;;;;-4.40;100.00;98561.22;6107792;19;20010;-71
2024/02/29 06:35:26;;;;;;;11.10;5.97;;;;;;;-4.40;100.00;98553.13;6107026;19;19919;-71
2024/02/29 06:37:27;;;;;;;13.55;6.18;;;;;;;-4.37;100.00;98552.59;6108318;19;20006;-71
2024/02/29 06:39:27;;;;;;;13.35;7.43;;;;;;;-4.44;100.00;98555.59;6107948;19;20030;-71
2024/02/29 06:41:27;;;;;;;15.30;7.97;;;;;;;-4.29;100.00;98557.41;6106421;19;20355;-71
2024/02/29 06:43:28;;;;;;;14.02;6.05;;;;;;;-4.28;100.00;98553.63;6119276;19;20506;-71
2024/02/29 06:45:28;;;;;;;18.02;7.03;;;;;;;-4.28;100.00;98551.72;6119956;19;20114;-71
2024/02/29 06:47:28;;;;;;;14.27;6.75;;;;;;;-4.28;100.00;98543.63;6119685;19;20007;-71
2024/02/29 06:49:29;;;;;;;15.20;7.70;;;;;;;-4.24;100.00;98546.56;6120071;19;20028;-71
2024/02/29 06:51:29;;;;;;;17.77;7.28;;;;;;;-4.19;100.00;98546.53;6118013;19;20011;-71
2024/02/29 06:53:33;;;;;;;14.82;7.22;;;;;;;-4.15;100.00;98541.38;6119016;19;20021;-71
2024/02/29 06:55:33;;;;;;;14.07;7.55;;;;;;;-4.13;100.00;98528.41;6118802;19;20010;-71
2024/02/29 06:57:35;;;;;;;13.45;6.03;;;;;;;-4.11;100.00;98543.25;6119493;19;20027;-71
2024/02/29 06:59:35;;;;;;;11.30;7.07;;;;;;;-4.02;100.00;98536.13;6119460;19;20026;-71
2024/02/29 07:01:36;;;;;;;14.60;6.35;;;;;;;-3.90;100.00;98540.38;6117539;19;20387;-71
2024/02/29 07:03:36;;;;;;;10.18;5.68;;;;;;;-3.90;100.00;98538.47;6119795;19;20021;-71
2024/02/29 07:05:37;;;;;;;14.88;6.75;;;;;;;-3.90;100.00;98532.25;6119509;19;20467;-71
2024/02/29 07:07:37;;;;;;;11.57;6.72;;;;;;;-3.89;100.00;98523.88;6119058;19;20412;-71
2024/02/29 07:09:43;;;;;;;12.45;6.30;;;;;;;-3.86;100.00;98528.72;6117917;19;20506;-71
2024/02/29 07:11:45;;;;;;;31.70;13.77;;;;;;;-3.83;100.00;98524.66;6118533;19;20006;-70
2024/02/29 07:13:46;;;;;;;35.22;14.68;;;;;;;-3.81;100.00;98523.25;6117995;19;20002;-71
2024/02/29 07:15:47;;;;;;;19.27;11.48;;;;;;;-3.74;100.00;98517.53;6111781;19;20448;-71
2024/02/29 07:17:48;;;;;;;18.60;11.50;;;;;;;-3.75;100.00;98519.44;6111938;19;20002;-71
2024/02/29 07:19:48;;;;;;;12.93;7.95;;;;;;;-3.67;100.00;98512.59;6110236;19;19999;-71
2024/02/29 07:21:48;;;;;;;15.85;8.60;;;;;;;-3.61;100.00;98526.91;6111493;19;20007;-71
2024/02/29 07:23:49;;;;;;;15.73;7.97;;;;;;;-3.57;100.00;98517.91;6111671;19;20073;-71
2024/02/29 07:25:53;;;;;;;15.07;9.18;;;;;;;-3.52;100.00;98523.28;6110222;19;20389;-71
2024/02/29 07:27:54;;;;;;;15.23;9.38;;;;;;;-3.47;100.00;98509.72;6111632;19;20078;-71
2024/02/29 07:29:55;;;;;;;20.30;9.00;;;;;;;-3.43;100.00;98521.56;6110409;19;20021;-71
2024/02/29 07:31:55;;;;;;;19.08;8.55;;;;;;;-3.36;100.00;98520.44;6110605;19;20041;-71
2024/02/29 07:33:55;;;;;;;21.45;10.43;;;;;;;-3.29;100.00;98523.63;6111193;19;20007;-71
2024/02/29 07:35:56;;;;;;;23.70;10.95;;;;;;;-3.26;100.00;98520.34;6111125;19;19994;-71
2024/02/29 07:37:57;;;;;;;27.85;14.13;;;;;;;-3.20;100.00;98527.31;6110368;19;20333;-71
2024/02/29 07:39:57;;;;;;;27.92;12.93;;;;;;;-3.17;100.00;98522.13;6109237;19;20502;-71
2024/02/29 07:41:57;;;;;;;23.17;12.07;;;;;;;-3.09;100.00;98530.69;6111309;19;20281;-71
2024/02/29 07:43:58;;;;;;;23.33;11.57;;;;;;;-3.06;100.00;98506.59;6108832;19;20010;-71
2024/02/29 07:45:59;;;;;;;23.80;10.35;;;;;;;-2.99;100.00;98519.75;6111404;19;19994;-71
2024/02/29 07:48:00;;;;;;;27.73;10.30;;;;;;;-2.93;100.00;98513.19;6110982;19;20011;-71
2024/02/29 07:50:03;;;;;;;21.95;9.52;;;;;;;-2.88;100.00;98513.16;6109564;19;20019;-71
2024/02/29 07:52:04;;;;;;;17.02;8.10;;;;;;;-2.81;100.00;98508.19;6110106;19;20026;-71
2024/02/29 07:54:04;;;;;;;14.13;7.10;;;;;;;-2.74;100.00;98514.03;6103681;19;20022;-71
2024/02/29 07:56:06;;;;;;;12.13;6.88;;;;;;;-2.68;100.00;98502.03;6105113;19;20713;-71
2024/02/29 07:58:07;;;;;;;14.85;7.68;;;;;;;-2.63;100.00;98510.13;6104982;19;20018;-71
2024/02/29 08:00:10;;;;;;;15.15;7.80;;;;;;;-2.58;100.00;98507.31;6102339;19;20003;-71
2024/02/29 08:02:10;;;;;;;19.20;8.95;;;;;;;-2.47;100.00;98518.84;6103904;19;20014;-71
2024/02/29 08:04:11;;;;;;;20.65;11.85;;;;;;;-2.41;100.00;98511.44;6104908;19;20446;-71
2024/02/29 08:06:12;;;;;;;17.98;10.23;;;;;;;-2.34;100.00;98515.41;6104384;19;20787;-71
2024/02/29 08:08:12;;;;;;;21.65;10.93;;;;;;;-2.26;100.00;98513.94;6104326;19;20007;-71
2024/02/29 08:10:15;;;;;;;24.65;12.10;;;;;;;-2.17;100.00;98512.16;6103539;19;20217;-71
2024/02/29 08:12:17;;;;;;;19.98;11.93;;;;;;;-2.09;100.00;98502.56;6104128;19;19998;-71
2024/02/29 08:14:17;;;;;;;24.42;11.68;;;;;;;-2.00;100.00;98507.03;6103793;19;20031;-71
2024/02/29 08:16:17;;;;;;;21.70;11.23;;;;;;;-1.92;100.00;98508.25;6110908;19;20002;-71
2024/02/29 08:18:18;;;;;;;21.40;10.32;;;;;;;-1.85;100.00;98508.69;6110526;19;20576;-71
2024/02/29 08:20:20;;;;;;;21.63;10.48;;;;;;;-1.76;100.00;98500.69;6110868;19;19998;-71
2024/02/29 08:22:20;;;;;;;18.50;11.00;;;;;;;-1.71;100.00;98501.41;6109967;19;20010;-71
2024/02/29 08:24:20;;;;;;;19.95;11.65;;;;;;;-1.62;100.00;98500.72;6110378;19;20019;-71
2024/02/29 08:26:21;;;;;;;19.55;9.95;;;;;;;-1.51;100.00;98491.31;6111825;19;20330;-71
2024/02/29 08:28:21;;;;;;;23.75;10.63;;;;;;;-1.42;100.00;98497.66;6111330;19;20027;-71
2024/02/29 08:30:23;;;;;;;19.58;10.63;;;;;;;-1.33;100.00;98490.41;6110063;19;20006;-71
2024/02/29 08:32:23;;;;;;;23.42;10.98;;;;;;;-1.25;100.00;98492.44;6110807;19;19999;-71
2024/02/29 08:34:23;;;;;;;16.77;8.95;;;;;;;-1.14;100.00;98488.44;6111050;19;20507;-71
2024/02/29 08:36:24;;;;;;;15.75;9.60;;;;;;;-1.04;100.00;98486.63;6110747;19;20582;-71
2024/02/29 08:38:24;;;;;;;20.95;9.80;;;;;;;-0.90;100.00;98482.81;6110378;19;20036;-71
2024/02/29 08:40:25;;;;;;;20.73;10.60;;;;;;;-0.77;100.00;98480.38;6109873;19;20030;-71
2024/02/29 08:42:25;;;;;;;18.67;10.32;;;;;;;-0.68;100.00;98478.56;6109968;19;20015;-71
2024/02/29 08:44:26;;;;;;;20.45;9.98;;;;;;;-0.61;100.00;98468.88;6110382;19;20099;-72
2024/02/29 08:46:26;;;;;;;22.45;9.95;;;;;;;-0.46;100.00;98470.47;6110833;19;20498;-71
2024/02/29 08:48:27;;;;;;;20.85;9.95;;;;;;;-0.31;100.00;98469.31;6110629;19;20468;-71
2024/02/29 08:50:27;;;;;;;20.27;10.57;;;;;;;-0.19;100.00;98469.56;6109688;19;20003;-71
2024/02/29 08:52:30;;;;;;;21.08;10.70;;;;;;;-0.07;100.00;98469.03;6109755;19;20010;-71
2024/02/29 08:54:31;;;;;;;22.33;11.88;;;;;;;0.04;100.00;98458.72;6111897;19;20010;-71
2024/02/29 08:56:31;;;;;;;21.35;12.35;;;;;;;0.15;100.00;98458.13;6110464;19;20006;-71
2024/02/29 08:58:31;;;;;;;21.10;11.65;;;;;;;0.26;100.00;98464.94;6110661;19;20027;-71
2024/02/29 09:00:32;;;;;;;24.83;11.23;;;;;;;0.35;100.00;98465.00;6110103;19;20018;-71
2024/02/29 09:02:32;;;;;;;21.13;10.93;;;;;;;0.48;100.00;98466.03;6111124;19;20003;-71
2024/02/29 09:04:33;;;;;;;27.95;12.50;;;;;;;0.60;100.00;98460.00;6111159;19;20237;-71
2024/02/29 09:06:33;;;;;;;18.88;10.57;;;;;;;0.69;100.00;98456.22;6110344;19;20021;-71
2024/02/29 09:08:33;;;;;;;21.77;11.13;;;;;;;0.84;100.00;98453.06;6111071;19;20398;-71
2024/02/29 09:10:35;;;;;;;21.95;11.13;;;;;;;0.96;100.00;98452.47;6109207;19;20003;-71
2024/02/29 09:12:35;;;;;;;21.73;10.82;;;;;;;1.09;100.00;98448.81;6110475;19;20023;-71
2024/02/29 09:14:39;;;;;;;23.25;11.25;;;;;;;1.22;100.00;98454.44;6111353;19;20023;-71